Las Vegas, Nevada
Traffic Map
Current Weather Conditions
Las Vegas, Nevada
Overcast
Overcast
54°
Feels Like: 54°
Wind Chill: 54° Ceiling: 20000
Heat Index: 54° Visibility: 10mi
Dew Point: 15° Wind: 3mph
Humidity: 22% Direction: 350° (N)
Pressure: 30.26in Gusts: 0mph
Raw Report DataKLAS 141956Z 35003KT 10SM FEW150 BKN200 OVC250 12/M09 A3026 RMK AO2 SLP247 T01221094
Traffic Incident Summary
Active as of:
Severity:
Category:
InformationThere was an issue retrieving the traffic information for this location. Please try a different location or try again shortly.
Advertisements